sensor_id;sensor_type;location;lat;lon;timestamp;P1;durP1;ratioP1;P2;durP2;ratioP2
11143;SDS011;5626;44.730;10.276;2022-10-16T00:00:40;19.30;;;15.57;;
11143;SDS011;5626;44.730;10.276;2022-10-16T00:03:10;17.63;;;14.85;;
11143;SDS011;5626;44.730;10.276;2022-10-16T00:05:40;16.75;;;13.32;;
11143;SDS011;5626;44.730;10.276;2022-10-16T00:08:13;16.52;;;14.25;;
11143;SDS011;5626;44.730;10.276;2022-10-16T00:10:43;16.70;;;13.25;;
11143;SDS011;5626;44.730;10.276;2022-10-16T00:13:12;18.98;;;15.43;;
11143;SDS011;5626;44.730;10.276;2022-10-16T00:15:44;16.05;;;13.75;;
11143;SDS011;5626;44.730;10.276;2022-10-16T00:18:14;15.75;;;13.75;;
11143;SDS011;5626;44.730;10.276;2022-10-16T00:20:43;15.23;;;13.25;;
11143;SDS011;5626;44.730;10.276;2022-10-16T00:23:32;15.48;;;13.10;;
11143;SDS011;5626;44.730;10.276;2022-10-16T00:26:03;16.25;;;11.98;;
11143;SDS011;5626;44.730;10.276;2022-10-16T00:28:34;14.18;;;12.48;;
11143;SDS011;5626;44.730;10.276;2022-10-16T00:31:04;13.90;;;12.30;;
11143;SDS011;5626;44.730;10.276;2022-10-16T00:33:35;15.07;;;12.75;;
11143;SDS011;5626;44.730;10.276;2022-10-16T00:36:06;14.90;;;13.25;;
11143;SDS011;5626;44.730;10.276;2022-10-16T00:38:39;15.25;;;12.57;;
11143;SDS011;5626;44.730;10.276;2022-10-16T00:41:10;17.88;;;13.32;;
11143;SDS011;5626;44.730;10.276;2022-10-16T00:43:43;15.65;;;12.52;;
11143;SDS011;5626;44.730;10.276;2022-10-16T00:46:15;14.57;;;13.02;;
11143;SDS011;5626;44.730;10.276;2022-10-16T00:48:49;16.20;;;12.70;;
11143;SDS011;5626;44.730;10.276;2022-10-16T00:51:25;15.15;;;13.25;;
11143;SDS011;5626;44.730;10.276;2022-10-16T00:54:01;14.48;;;11.10;;
11143;SDS011;5626;44.730;10.276;2022-10-16T00:56:32;12.93;;;11.38;;
11143;SDS011;5626;44.730;10.276;2022-10-16T00:59:03;12.63;;;10.88;;
11143;SDS011;5626;44.730;10.276;2022-10-16T01:01:35;15.48;;;10.90;;
11143;SDS011;5626;44.730;10.276;2022-10-16T01:04:05;13.02;;;11.70;;
11143;SDS011;5626;44.730;10.276;2022-10-16T01:06:36;12.15;;;10.95;;
11143;SDS011;5626;44.730;10.276;2022-10-16T01:09:16;13.50;;;11.15;;
11143;SDS011;5626;44.730;10.276;2022-10-16T01:11:53;11.95;;;10.73;;
11143;SDS011;5626;44.730;10.276;2022-10-16T01:14:32;11.95;;;10.75;;
11143;SDS011;5626;44.730;10.276;2022-10-16T01:17:07;13.77;;;11.25;;
11143;SDS011;5626;44.730;10.276;2022-10-16T01:19:44;12.77;;;11.38;;
11143;SDS011;5626;44.730;10.276;2022-10-16T01:22:33;14.05;;;11.45;;
11143;SDS011;5626;44.730;10.276;2022-10-16T01:25:15;14.65;;;11.77;;
11143;SDS011;5626;44.730;10.276;2022-10-16T01:27:53;12.13;;;10.90;;
11143;SDS011;5626;44.730;10.276;2022-10-16T01:30:24;14.02;;;11.20;;
11143;SDS011;5626;44.730;10.276;2022-10-16T01:32:59;14.55;;;12.45;;
11143;SDS011;5626;44.730;10.276;2022-10-16T01:35:36;14.00;;;11.93;;
11143;SDS011;5626;44.730;10.276;2022-10-16T01:38:10;16.33;;;12.52;;
11143;SDS011;5626;44.730;10.276;2022-10-16T01:40:45;14.52;;;12.90;;
11143;SDS011;5626;44.730;10.276;2022-10-16T01:43:22;14.15;;;12.65;;
11143;SDS011;5626;44.730;10.276;2022-10-16T01:45:56;15.27;;;12.05;;
11143;SDS011;5626;44.730;10.276;2022-10-16T01:48:28;14.18;;;12.73;;
11143;SDS011;5626;44.730;10.276;2022-10-16T01:51:01;15.60;;;13.63;;
11143;SDS011;5626;44.730;10.276;2022-10-16T01:53:34;16.30;;;14.05;;
11143;SDS011;5626;44.730;10.276;2022-10-16T01:56:06;17.50;;;13.60;;
11143;SDS011;5626;44.730;10.276;2022-10-16T01:58:40;17.58;;;13.95;;
11143;SDS011;5626;44.730;10.276;2022-10-16T02:01:13;19.92;;;15.05;;
11143;SDS011;5626;44.730;10.276;2022-10-16T02:03:48;17.50;;;14.23;;
11143;SDS011;5626;44.730;10.276;2022-10-16T02:06:20;15.88;;;14.30;;
11143;SDS011;5626;44.730;10.276;2022-10-16T02:08:50;17.08;;;15.07;;
11143;SDS011;5626;44.730;10.276;2022-10-16T02:11:20;17.27;;;14.88;;
11143;SDS011;5626;44.730;10.276;2022-10-16T02:13:52;16.15;;;14.02;;
11143;SDS011;5626;44.730;10.276;2022-10-16T02:16:31;18.77;;;13.98;;
11143;SDS011;5626;44.730;10.276;2022-10-16T02:19:02;15.68;;;14.02;;
11143;SDS011;5626;44.730;10.276;2022-10-16T02:21:34;14.73;;;13.13;;
11143;SDS011;5626;44.730;10.276;2022-10-16T02:24:11;14.52;;;12.43;;
11143;SDS011;5626;44.730;10.276;2022-10-16T02:26:46;16.00;;;13.93;;
11143;SDS011;5626;44.730;10.276;2022-10-16T02:29:24;15.52;;;13.90;;
11143;SDS011;5626;44.730;10.276;2022-10-16T02:31:55;17.80;;;14.00;;
11143;SDS011;5626;44.730;10.276;2022-10-16T02:34:28;19.20;;;14.60;;
11143;SDS011;5626;44.730;10.276;2022-10-16T02:37:01;20.60;;;15.40;;
11143;SDS011;5626;44.730;10.276;2022-10-16T02:39:33;15.40;;;13.23;;
11143;SDS011;5626;44.730;10.276;2022-10-16T02:42:03;15.02;;;13.30;;
11143;SDS011;5626;44.730;10.276;2022-10-16T02:44:34;14.07;;;11.00;;
11143;SDS011;5626;44.730;10.276;2022-10-16T02:47:04;12.75;;;10.15;;
11143;SDS011;5626;44.730;10.276;2022-10-16T02:49:33;10.82;;;9.73;;
11143;SDS011;5626;44.730;10.276;2022-10-16T02:52:03;9.68;;;8.77;;
11143;SDS011;5626;44.730;10.276;2022-10-16T02:54:33;9.93;;;8.88;;
11143;SDS011;5626;44.730;10.276;2022-10-16T02:57:02;8.77;;;7.93;;
11143;SDS011;5626;44.730;10.276;2022-10-16T02:59:32;9.10;;;7.65;;
11143;SDS011;5626;44.730;10.276;2022-10-16T03:02:03;8.00;;;7.18;;
11143;SDS011;5626;44.730;10.276;2022-10-16T03:04:32;10.15;;;8.02;;
11143;SDS011;5626;44.730;10.276;2022-10-16T03:07:02;10.60;;;7.90;;
11143;SDS011;5626;44.730;10.276;2022-10-16T03:09:32;8.45;;;7.65;;
11143;SDS011;5626;44.730;10.276;2022-10-16T03:12:01;7.80;;;7.00;;
11143;SDS011;5626;44.730;10.276;2022-10-16T03:14:31;7.80;;;6.63;;
11143;SDS011;5626;44.730;10.276;2022-10-16T03:17:02;8.95;;;6.60;;
11143;SDS011;5626;44.730;10.276;2022-10-16T03:19:32;7.13;;;6.38;;
11143;SDS011;5626;44.730;10.276;2022-10-16T03:22:02;7.68;;;6.88;;
11143;SDS011;5626;44.730;10.276;2022-10-16T03:24:31;8.23;;;7.13;;
11143;SDS011;5626;44.730;10.276;2022-10-16T03:27:01;11.18;;;7.32;;
11143;SDS011;5626;44.730;10.276;2022-10-16T03:29:30;8.13;;;7.30;;
11143;SDS011;5626;44.730;10.276;2022-10-16T03:32:00;9.63;;;7.88;;
11143;SDS011;5626;44.730;10.276;2022-10-16T03:34:32;11.43;;;7.47;;
11143;SDS011;5626;44.730;10.276;2022-10-16T03:37:02;9.63;;;7.63;;
11143;SDS011;5626;44.730;10.276;2022-10-16T03:39:31;8.20;;;7.40;;
11143;SDS011;5626;44.730;10.276;2022-10-16T03:42:01;7.65;;;6.95;;
11143;SDS011;5626;44.730;10.276;2022-10-16T03:44:31;8.45;;;7.18;;
11143;SDS011;5626;44.730;10.276;2022-10-16T03:47:00;10.82;;;7.88;;
11143;SDS011;5626;44.730;10.276;2022-10-16T03:49:32;10.00;;;7.85;;
11143;SDS011;5626;44.730;10.276;2022-10-16T03:52:01;9.45;;;7.18;;
11143;SDS011;5626;44.730;10.276;2022-10-16T03:54:31;7.80;;;6.82;;
11143;SDS011;5626;44.730;10.276;2022-10-16T03:57:00;9.32;;;7.72;;
11143;SDS011;5626;44.730;10.276;2022-10-16T03:59:30;11.30;;;7.60;;
11143;SDS011;5626;44.730;10.276;2022-10-16T04:02:00;8.63;;;7.10;;
11143;SDS011;5626;44.730;10.276;2022-10-16T04:04:30;8.18;;;7.38;;
11143;SDS011;5626;44.730;10.276;2022-10-16T04:07:01;11.52;;;7.80;;
11143;SDS011;5626;44.730;10.276;2022-10-16T04:09:30;9.57;;;8.15;;
11143;SDS011;5626;44.730;10.276;2022-10-16T04:12:00;10.02;;;8.35;;
11143;SDS011;5626;44.730;10.276;2022-10-16T04:14:29;10.05;;;8.10;;
11143;SDS011;5626;44.730;10.276;2022-10-16T04:16:59;9.23;;;8.32;;
11143;SDS011;5626;44.730;10.276;2022-10-16T04:19:29;8.95;;;8.05;;
11143;SDS011;5626;44.730;10.276;2022-10-16T04:22:00;11.30;;;8.70;;
11143;SDS011;5626;44.730;10.276;2022-10-16T04:24:29;10.13;;;7.28;;
11143;SDS011;5626;44.730;10.276;2022-10-16T04:26:59;9.90;;;7.55;;
11143;SDS011;5626;44.730;10.276;2022-10-16T04:29:28;8.77;;;7.88;;
11143;SDS011;5626;44.730;10.276;2022-10-16T04:31:58;7.90;;;7.07;;
11143;SDS011;5626;44.730;10.276;2022-10-16T04:34:27;8.52;;;7.72;;
11143;SDS011;5626;44.730;10.276;2022-10-16T04:36:57;9.65;;;8.25;;
11143;SDS011;5626;44.730;10.276;2022-10-16T04:39:28;8.85;;;7.32;;
11143;SDS011;5626;44.730;10.276;2022-10-16T04:41:57;9.40;;;7.40;;
11143;SDS011;5626;44.730;10.276;2022-10-16T04:44:27;8.88;;;7.20;;
11143;SDS011;5626;44.730;10.276;2022-10-16T04:46:56;8.10;;;7.20;;
11143;SDS011;5626;44.730;10.276;2022-10-16T04:49:26;9.68;;;7.95;;
11143;SDS011;5626;44.730;10.276;2022-10-16T04:51:56;10.53;;;8.37;;
11143;SDS011;5626;44.730;10.276;2022-10-16T04:54:25;10.85;;;8.93;;
11143;SDS011;5626;44.730;10.276;2022-10-16T04:56:56;10.27;;;8.30;;
11143;SDS011;5626;44.730;10.276;2022-10-16T04:59:26;11.27;;;9.40;;
11143;SDS011;5626;44.730;10.276;2022-10-16T05:01:55;14.07;;;9.50;;
11143;SDS011;5626;44.730;10.276;2022-10-16T05:04:25;12.55;;;9.52;;
11143;SDS011;5626;44.730;10.276;2022-10-16T05:06:54;11.25;;;9.68;;
11143;SDS011;5626;44.730;10.276;2022-10-16T05:09:24;10.43;;;8.67;;
11143;SDS011;5626;44.730;10.276;2022-10-16T05:11:55;10.23;;;9.10;;
11143;SDS011;5626;44.730;10.276;2022-10-16T05:14:25;9.53;;;8.33;;
11143;SDS011;5626;44.730;10.276;2022-10-16T05:16:54;13.03;;;8.13;;
11143;SDS011;5626;44.730;10.276;2022-10-16T05:19:24;11.40;;;8.47;;
11143;SDS011;5626;44.730;10.276;2022-10-16T05:21:54;8.47;;;7.40;;
11143;SDS011;5626;44.730;10.276;2022-10-16T05:24:24;8.23;;;7.23;;
11143;SDS011;5626;44.730;10.276;2022-10-16T05:26:55;10.07;;;7.63;;
11143;SDS011;5626;44.730;10.276;2022-10-16T05:29:25;9.50;;;7.27;;
11143;SDS011;5626;44.730;10.276;2022-10-16T05:31:55;9.77;;;7.57;;
11143;SDS011;5626;44.730;10.276;2022-10-16T05:34:24;8.70;;;7.50;;
11143;SDS011;5626;44.730;10.276;2022-10-16T05:36:54;8.90;;;7.03;;
11143;SDS011;5626;44.730;10.276;2022-10-16T05:39:24;8.80;;;7.03;;
11143;SDS011;5626;44.730;10.276;2022-10-16T05:41:54;8.30;;;6.80;;
11143;SDS011;5626;44.730;10.276;2022-10-16T05:44:24;7.60;;;6.90;;
11143;SDS011;5626;44.730;10.276;2022-10-16T05:46:54;7.07;;;6.37;;
11143;SDS011;5626;44.730;10.276;2022-10-16T05:49:24;7.77;;;6.70;;
11143;SDS011;5626;44.730;10.276;2022-10-16T05:51:53;8.37;;;6.43;;
11143;SDS011;5626;44.730;10.276;2022-10-16T05:54:23;7.30;;;6.40;;
11143;SDS011;5626;44.730;10.276;2022-10-16T05:56:52;9.00;;;7.13;;
11143;SDS011;5626;44.730;10.276;2022-10-16T05:59:24;9.77;;;6.47;;
11143;SDS011;5626;44.730;10.276;2022-10-16T06:01:53;7.47;;;6.33;;
11143;SDS011;5626;44.730;10.276;2022-10-16T06:04:23;9.20;;;7.13;;
11143;SDS011;5626;44.730;10.276;2022-10-16T06:06:52;7.03;;;6.10;;
11143;SDS011;5626;44.730;10.276;2022-10-16T06:09:22;7.47;;;6.70;;
11143;SDS011;5626;44.730;10.276;2022-10-16T06:11:51;7.57;;;6.10;;
11143;SDS011;5626;44.730;10.276;2022-10-16T06:14:21;7.60;;;6.37;;
11143;SDS011;5626;44.730;10.276;2022-10-16T06:16:52;6.37;;;5.77;;
11143;SDS011;5626;44.730;10.276;2022-10-16T06:19:22;7.00;;;6.07;;
11143;SDS011;5626;44.730;10.276;2022-10-16T06:21:52;8.90;;;6.20;;
11143;SDS011;5626;44.730;10.276;2022-10-16T06:24:21;8.93;;;6.25;;
11143;SDS011;5626;44.730;10.276;2022-10-16T06:26:51;7.13;;;6.43;;
11143;SDS011;5626;44.730;10.276;2022-10-16T06:29:20;7.83;;;6.70;;
11143;SDS011;5626;44.730;10.276;2022-10-16T06:31:51;8.60;;;6.82;;
11143;SDS011;5626;44.730;10.276;2022-10-16T06:34:21;7.65;;;6.85;;
11143;SDS011;5626;44.730;10.276;2022-10-16T06:36:51;9.63;;;6.40;;
11143;SDS011;5626;44.730;10.276;2022-10-16T06:39:21;7.60;;;6.83;;
11143;SDS011;5626;44.730;10.276;2022-10-16T06:41:50;8.73;;;6.53;;
11143;SDS011;5626;44.730;10.276;2022-10-16T06:44:20;8.57;;;5.88;;
11143;SDS011;5626;44.730;10.276;2022-10-16T06:46:50;8.17;;;6.47;;
11143;SDS011;5626;44.730;10.276;2022-10-16T06:49:22;7.67;;;6.27;;
11143;SDS011;5626;44.730;10.276;2022-10-16T06:51:51;9.68;;;6.78;;
11143;SDS011;5626;44.730;10.276;2022-10-16T06:54:21;8.35;;;6.20;;
11143;SDS011;5626;44.730;10.276;2022-10-16T06:56:51;6.70;;;5.80;;
11143;SDS011;5626;44.730;10.276;2022-10-16T06:59:22;6.90;;;5.88;;
11143;SDS011;5626;44.730;10.276;2022-10-16T07:01:53;7.90;;;5.60;;
11143;SDS011;5626;44.730;10.276;2022-10-16T07:04:22;7.72;;;5.55;;
11143;SDS011;5626;44.730;10.276;2022-10-16T07:06:52;9.32;;;6.13;;
11143;SDS011;5626;44.730;10.276;2022-10-16T07:09:21;6.13;;;5.53;;
11143;SDS011;5626;44.730;10.276;2022-10-16T07:11:51;8.15;;;5.60;;
11143;SDS011;5626;44.730;10.276;2022-10-16T07:14:21;6.32;;;5.70;;
11143;SDS011;5626;44.730;10.276;2022-10-16T07:16:51;6.20;;;5.60;;
11143;SDS011;5626;44.730;10.276;2022-10-16T07:19:22;8.68;;;5.50;;
11143;SDS011;5626;44.730;10.276;2022-10-16T07:21:53;6.93;;;5.82;;
11143;SDS011;5626;44.730;10.276;2022-10-16T07:24:24;7.40;;;6.10;;
11143;SDS011;5626;44.730;10.276;2022-10-16T07:26:53;8.10;;;7.05;;
11143;SDS011;5626;44.730;10.276;2022-10-16T07:29:23;8.02;;;7.18;;
11143;SDS011;5626;44.730;10.276;2022-10-16T07:31:54;9.68;;;8.65;;
11143;SDS011;5626;44.730;10.276;2022-10-16T07:34:24;13.23;;;8.48;;
11143;SDS011;5626;44.730;10.276;2022-10-16T07:36:54;8.27;;;6.35;;
11143;SDS011;5626;44.730;10.276;2022-10-16T07:39:23;7.63;;;6.93;;
11143;SDS011;5626;44.730;10.276;2022-10-16T07:41:53;10.73;;;8.02;;
11143;SDS011;5626;44.730;10.276;2022-10-16T07:44:25;9.60;;;7.22;;
11143;SDS011;5626;44.730;10.276;2022-10-16T07:46:56;9.60;;;7.88;;
11143;SDS011;5626;44.730;10.276;2022-10-16T07:49:26;11.52;;;8.52;;
11143;SDS011;5626;44.730;10.276;2022-10-16T07:51:55;9.10;;;7.95;;
11143;SDS011;5626;44.730;10.276;2022-10-16T07:54:25;10.25;;;8.55;;
11143;SDS011;5626;44.730;10.276;2022-10-16T07:56:55;12.00;;;7.85;;
11143;SDS011;5626;44.730;10.276;2022-10-16T07:59:25;9.05;;;8.15;;
11143;SDS011;5626;44.730;10.276;2022-10-16T08:01:56;10.10;;;8.27;;
11143;SDS011;5626;44.730;10.276;2022-10-16T08:04:25;8.50;;;7.45;;
11143;SDS011;5626;44.730;10.276;2022-10-16T08:06:55;8.85;;;7.90;;
11143;SDS011;5626;44.730;10.276;2022-10-16T08:09:24;11.00;;;7.70;;
11143;SDS011;5626;44.730;10.276;2022-10-16T08:11:54;9.18;;;7.60;;
11143;SDS011;5626;44.730;10.276;2022-10-16T08:14:26;9.20;;;7.97;;
11143;SDS011;5626;44.730;10.276;2022-10-16T08:16:57;8.90;;;7.47;;
11143;SDS011;5626;44.730;10.276;2022-10-16T08:19:26;8.55;;;7.32;;
11143;SDS011;5626;44.730;10.276;2022-10-16T08:21:56;8.55;;;7.18;;
11143;SDS011;5626;44.730;10.276;2022-10-16T08:24:25;13.23;;;7.75;;
11143;SDS011;5626;44.730;10.276;2022-10-16T08:26:58;7.30;;;6.53;;
11143;SDS011;5626;44.730;10.276;2022-10-16T08:29:28;8.00;;;6.75;;
11143;SDS011;5626;44.730;10.276;2022-10-16T08:31:59;7.47;;;6.78;;
11143;SDS011;5626;44.730;10.276;2022-10-16T08:34:29;7.68;;;6.30;;
11143;SDS011;5626;44.730;10.276;2022-10-16T08:36:58;6.95;;;6.35;;
11143;SDS011;5626;44.730;10.276;2022-10-16T08:39:28;7.90;;;7.15;;
11143;SDS011;5626;44.730;10.276;2022-10-16T08:42:04;8.10;;;7.28;;
11143;SDS011;5626;44.730;10.276;2022-10-16T08:44:55;10.95;;;8.40;;
11143;SDS011;5626;44.730;10.276;2022-10-16T08:47:51;10.38;;;9.25;;
11143;SDS011;5626;44.730;10.276;2022-10-16T08:50:29;10.27;;;8.20;;
11143;SDS011;5626;44.730;10.276;2022-10-16T08:53:00;11.57;;;8.80;;
11143;SDS011;5626;44.730;10.276;2022-10-16T08:55:31;10.25;;;8.27;;
11143;SDS011;5626;44.730;10.276;2022-10-16T08:58:10;14.48;;;10.38;;
11143;SDS011;5626;44.730;10.276;2022-10-16T09:00:42;13.88;;;10.93;;
11143;SDS011;5626;44.730;10.276;2022-10-16T09:03:21;12.98;;;11.25;;
11143;SDS011;5626;44.730;10.276;2022-10-16T09:06:10;14.60;;;11.80;;
11143;SDS011;5626;44.730;10.276;2022-10-16T09:08:58;12.07;;;10.75;;
11143;SDS011;5626;44.730;10.276;2022-10-16T09:11:41;12.88;;;10.90;;
11143;SDS011;5626;44.730;10.276;2022-10-16T09:14:28;16.45;;;13.35;;
11143;SDS011;5626;44.730;10.276;2022-10-16T09:17:14;13.60;;;12.20;;
11143;SDS011;5626;44.730;10.276;2022-10-16T09:19:56;13.70;;;12.10;;
11143;SDS011;5626;44.730;10.276;2022-10-16T09:22:34;18.35;;;13.52;;
11143;SDS011;5626;44.730;10.276;2022-10-16T09:25:10;14.52;;;12.20;;
11143;SDS011;5626;44.730;10.276;2022-10-16T09:27:41;17.80;;;13.95;;
11143;SDS011;5626;44.730;10.276;2022-10-16T09:30:14;19.38;;;15.07;;
11143;SDS011;5626;44.730;10.276;2022-10-16T09:32:46;22.65;;;17.73;;
11143;SDS011;5626;44.730;10.276;2022-10-16T09:35:20;23.23;;;18.52;;
11143;SDS011;5626;44.730;10.276;2022-10-16T09:37:51;27.88;;;20.60;;
11143;SDS011;5626;44.730;10.276;2022-10-16T09:40:26;25.27;;;21.20;;
11143;SDS011;5626;44.730;10.276;2022-10-16T09:43:01;29.77;;;23.75;;
11143;SDS011;5626;44.730;10.276;2022-10-16T09:45:35;29.30;;;25.20;;
11143;SDS011;5626;44.730;10.276;2022-10-16T09:48:10;30.45;;;24.00;;
11143;SDS011;5626;44.730;10.276;2022-10-16T09:50:42;32.90;;;25.65;;
11143;SDS011;5626;44.730;10.276;2022-10-16T09:53:12;29.40;;;24.42;;
11143;SDS011;5626;44.730;10.276;2022-10-16T09:55:49;22.83;;;19.48;;
11143;SDS011;5626;44.730;10.276;2022-10-16T09:58:20;29.00;;;24.05;;
11143;SDS011;5626;44.730;10.276;2022-10-16T10:00:52;22.67;;;19.85;;
11143;SDS011;5626;44.730;10.276;2022-10-16T10:03:36;29.27;;;25.05;;
11143;SDS011;5626;44.730;10.276;2022-10-16T10:06:16;27.75;;;23.83;;
11143;SDS011;5626;44.730;10.276;2022-10-16T10:09:06;26.02;;;22.63;;
11143;SDS011;5626;44.730;10.276;2022-10-16T10:11:47;26.15;;;22.45;;
11143;SDS011;5626;44.730;10.276;2022-10-16T10:14:25;32.35;;;25.77;;
11143;SDS011;5626;44.730;10.276;2022-10-16T10:17:11;32.53;;;26.90;;
11143;SDS011;5626;44.730;10.276;2022-10-16T10:19:46;31.25;;;26.50;;
11143;SDS011;5626;44.730;10.276;2022-10-16T10:22:26;30.33;;;24.98;;
11143;SDS011;5626;44.730;10.276;2022-10-16T10:25:00;37.05;;;30.60;;
11143;SDS011;5626;44.730;10.276;2022-10-16T10:27:47;35.33;;;30.02;;
11143;SDS011;5626;44.730;10.276;2022-10-16T10:30:40;31.55;;;26.70;;
11143;SDS011;5626;44.730;10.276;2022-10-16T10:33:21;29.55;;;25.17;;
11143;SDS011;5626;44.730;10.276;2022-10-16T10:35:59;32.13;;;26.25;;
11143;SDS011;5626;44.730;10.276;2022-10-16T10:38:38;33.15;;;28.02;;
11143;SDS011;5626;44.730;10.276;2022-10-16T10:41:19;33.42;;;27.95;;
11143;SDS011;5626;44.730;10.276;2022-10-16T10:44:03;34.97;;;28.02;;
11143;SDS011;5626;44.730;10.276;2022-10-16T10:46:41;34.15;;;27.58;;
11143;SDS011;5626;44.730;10.276;2022-10-16T10:49:19;36.72;;;30.17;;
11143;SDS011;5626;44.730;10.276;2022-10-16T10:52:08;37.75;;;30.55;;
11143;SDS011;5626;44.730;10.276;2022-10-16T10:54:50;34.70;;;29.38;;
11143;SDS011;5626;44.730;10.276;2022-10-16T10:57:28;29.75;;;23.02;;
11143;SDS011;5626;44.730;10.276;2022-10-16T11:00:06;36.25;;;28.25;;
11143;SDS011;5626;44.730;10.276;2022-10-16T11:02:46;33.58;;;27.23;;
11143;SDS011;5626;44.730;10.276;2022-10-16T11:05:29;31.20;;;26.60;;
11143;SDS011;5626;44.730;10.276;2022-10-16T11:08:07;34.08;;;28.00;;
11143;SDS011;5626;44.730;10.276;2022-10-16T11:10:47;36.00;;;27.63;;
11143;SDS011;5626;44.730;10.276;2022-10-16T11:13:26;33.35;;;27.88;;
11143;SDS011;5626;44.730;10.276;2022-10-16T11:16:02;33.50;;;26.42;;
11143;SDS011;5626;44.730;10.276;2022-10-16T11:18:42;30.63;;;24.67;;
11143;SDS011;5626;44.730;10.276;2022-10-16T11:21:19;34.72;;;29.27;;
11143;SDS011;5626;44.730;10.276;2022-10-16T11:23:53;30.80;;;24.35;;
11143;SDS011;5626;44.730;10.276;2022-10-16T11:26:30;31.95;;;26.67;;
11143;SDS011;5626;44.730;10.276;2022-10-16T11:29:04;32.45;;;24.80;;
11143;SDS011;5626;44.730;10.276;2022-10-16T11:31:41;35.22;;;28.75;;
11143;SDS011;5626;44.730;10.276;2022-10-16T11:34:17;34.47;;;28.42;;
11143;SDS011;5626;44.730;10.276;2022-10-16T11:36:55;29.70;;;24.27;;
11143;SDS011;5626;44.730;10.276;2022-10-16T11:39:28;30.25;;;24.77;;
11143;SDS011;5626;44.730;10.276;2022-10-16T11:42:01;28.75;;;23.95;;
11143;SDS011;5626;44.730;10.276;2022-10-16T11:44:43;29.38;;;24.67;;
11143;SDS011;5626;44.730;10.276;2022-10-16T11:47:24;31.30;;;25.10;;
11143;SDS011;5626;44.730;10.276;2022-10-16T11:50:17;29.33;;;24.63;;
11143;SDS011;5626;44.730;10.276;2022-10-16T11:52:54;26.08;;;22.17;;
11143;SDS011;5626;44.730;10.276;2022-10-16T11:55:31;30.65;;;24.17;;
11143;SDS011;5626;44.730;10.276;2022-10-16T11:58:07;27.75;;;24.27;;
11143;SDS011;5626;44.730;10.276;2022-10-16T12:00:45;26.00;;;22.00;;
11143;SDS011;5626;44.730;10.276;2022-10-16T12:03:21;31.42;;;25.10;;
11143;SDS011;5626;44.730;10.276;2022-10-16T12:06:02;24.77;;;20.45;;
11143;SDS011;5626;44.730;10.276;2022-10-16T12:08:41;20.27;;;18.10;;
11143;SDS011;5626;44.730;10.276;2022-10-16T12:11:20;27.67;;;24.67;;
11143;SDS011;5626;44.730;10.276;2022-10-16T12:17:24;36.15;;;28.27;;
11143;SDS011;5626;44.730;10.276;2022-10-16T12:19:59;26.63;;;22.90;;
11143;SDS011;5626;44.730;10.276;2022-10-16T12:22:30;32.83;;;27.60;;
11143;SDS011;5626;44.730;10.276;2022-10-16T12:25:02;28.08;;;23.52;;
11143;SDS011;5626;44.730;10.276;2022-10-16T12:27:32;31.25;;;25.90;;
11143;SDS011;5626;44.730;10.276;2022-10-16T12:30:04;29.27;;;23.85;;
11143;SDS011;5626;44.730;10.276;2022-10-16T12:32:37;31.00;;;25.00;;
11143;SDS011;5626;44.730;10.276;2022-10-16T12:35:17;28.48;;;25.23;;
11143;SDS011;5626;44.730;10.276;2022-10-16T12:37:49;31.05;;;25.13;;
11143;SDS011;5626;44.730;10.276;2022-10-16T12:40:24;32.90;;;25.23;;
11143;SDS011;5626;44.730;10.276;2022-10-16T12:42:58;28.52;;;24.17;;
11143;SDS011;5626;44.730;10.276;2022-10-16T12:45:29;30.40;;;23.90;;
11143;SDS011;5626;44.730;10.276;2022-10-16T12:48:02;25.15;;;20.85;;
11143;SDS011;5626;44.730;10.276;2022-10-16T12:50:47;24.48;;;20.70;;
11143;SDS011;5626;44.730;10.276;2022-10-16T12:53:18;23.08;;;19.77;;
11143;SDS011;5626;44.730;10.276;2022-10-16T12:55:53;23.58;;;19.92;;
11143;SDS011;5626;44.730;10.276;2022-10-16T12:58:38;20.20;;;17.55;;
11143;SDS011;5626;44.730;10.276;2022-10-16T13:01:24;24.25;;;20.52;;
11143;SDS011;5626;44.730;10.276;2022-10-16T13:04:23;21.60;;;19.20;;
11143;SDS011;5626;44.730;10.276;2022-10-16T13:07:09;24.60;;;20.27;;
11143;SDS011;5626;44.730;10.276;2022-10-16T13:09:56;26.42;;;23.40;;
11143;SDS011;5626;44.730;10.276;2022-10-16T13:12:40;23.60;;;20.00;;
11143;SDS011;5626;44.730;10.276;2022-10-16T13:15:33;27.27;;;21.75;;
11143;SDS011;5626;44.730;10.276;2022-10-16T13:18:11;24.27;;;20.45;;
11143;SDS011;5626;44.730;10.276;2022-10-16T13:20:54;23.58;;;18.70;;
11143;SDS011;5626;44.730;10.276;2022-10-16T13:23:33;21.98;;;19.58;;
11143;SDS011;5626;44.730;10.276;2022-10-16T13:26:09;20.45;;;17.35;;
11143;SDS011;5626;44.730;10.276;2022-10-16T13:28:50;22.35;;;18.60;;
11143;SDS011;5626;44.730;10.276;2022-10-16T13:31:20;21.95;;;19.02;;
11143;SDS011;5626;44.730;10.276;2022-10-16T13:33:53;18.40;;;15.95;;
11143;SDS011;5626;44.730;10.276;2022-10-16T13:36:28;21.48;;;18.45;;
11143;SDS011;5626;44.730;10.276;2022-10-16T13:39:00;18.67;;;16.30;;
11143;SDS011;5626;44.730;10.276;2022-10-16T13:41:38;19.95;;;17.95;;
11143;SDS011;5626;44.730;10.276;2022-10-16T13:44:11;20.70;;;18.65;;
11143;SDS011;5626;44.730;10.276;2022-10-16T13:46:44;22.85;;;20.58;;
11143;SDS011;5626;44.730;10.276;2022-10-16T13:49:14;23.30;;;20.90;;
11143;SDS011;5626;44.730;10.276;2022-10-16T13:51:54;20.27;;;18.27;;
11143;SDS011;5626;44.730;10.276;2022-10-16T13:54:25;21.70;;;19.60;;
11143;SDS011;5626;44.730;10.276;2022-10-16T13:57:04;21.30;;;19.25;;
11143;SDS011;5626;44.730;10.276;2022-10-16T13:59:41;22.20;;;20.10;;
11143;SDS011;5626;44.730;10.276;2022-10-16T14:02:17;24.00;;;21.77;;
11143;SDS011;5626;44.730;10.276;2022-10-16T14:04:49;24.02;;;21.52;;
11143;SDS011;5626;44.730;10.276;2022-10-16T14:07:23;24.15;;;21.75;;
11143;SDS011;5626;44.730;10.276;2022-10-16T14:09:54;28.20;;;25.50;;
11143;SDS011;5626;44.730;10.276;2022-10-16T14:12:25;28.48;;;25.55;;
11143;SDS011;5626;44.730;10.276;2022-10-16T14:14:54;26.48;;;23.98;;
11143;SDS011;5626;44.730;10.276;2022-10-16T14:17:26;26.75;;;24.20;;
11143;SDS011;5626;44.730;10.276;2022-10-16T14:19:58;27.45;;;24.70;;
11143;SDS011;5626;44.730;10.276;2022-10-16T14:22:32;22.45;;;20.10;;
11143;SDS011;5626;44.730;10.276;2022-10-16T14:25:15;19.48;;;17.60;;
11143;SDS011;5626;44.730;10.276;2022-10-16T14:27:57;22.42;;;20.23;;
11143;SDS011;5626;44.730;10.276;2022-10-16T14:30:33;21.85;;;19.90;;
11143;SDS011;5626;44.730;10.276;2022-10-16T14:33:05;22.48;;;20.30;;
11143;SDS011;5626;44.730;10.276;2022-10-16T14:35:57;20.90;;;18.88;;
11143;SDS011;5626;44.730;10.276;2022-10-16T14:38:31;20.00;;;18.08;;
11143;SDS011;5626;44.730;10.276;2022-10-16T14:41:01;16.88;;;15.40;;
11143;SDS011;5626;44.730;10.276;2022-10-16T14:43:33;14.88;;;13.40;;
11143;SDS011;5626;44.730;10.276;2022-10-16T14:46:06;15.80;;;14.02;;
11143;SDS011;5626;44.730;10.276;2022-10-16T14:48:40;14.88;;;13.32;;
11143;SDS011;5626;44.730;10.276;2022-10-16T14:51:11;16.40;;;14.80;;
11143;SDS011;5626;44.730;10.276;2022-10-16T14:53:44;17.10;;;14.73;;
11143;SDS011;5626;44.730;10.276;2022-10-16T14:56:15;12.85;;;11.65;;
11143;SDS011;5626;44.730;10.276;2022-10-16T14:58:47;16.27;;;14.02;;
11143;SDS011;5626;44.730;10.276;2022-10-16T15:01:16;14.48;;;12.20;;
11143;SDS011;5626;44.730;10.276;2022-10-16T15:03:46;13.10;;;11.70;;
11143;SDS011;5626;44.730;10.276;2022-10-16T15:06:16;13.57;;;11.57;;
11143;SDS011;5626;44.730;10.276;2022-10-16T15:08:48;15.80;;;13.27;;
11143;SDS011;5626;44.730;10.276;2022-10-16T15:11:18;14.32;;;12.90;;